createdAt,value
2018-12-18T00:01:52.411Z,6.69
2018-12-18T00:07:47.386Z,8.09
2018-12-18T00:13:42.429Z,6.99
2018-12-18T00:19:37.389Z,7.52
2018-12-18T00:25:32.384Z,7.33
2018-12-18T00:31:27.421Z,7.76
2018-12-18T00:37:22.426Z,7.57
2018-12-18T00:43:17.435Z,6.44
2018-12-18T00:49:12.407Z,7.75
2018-12-18T00:55:07.398Z,6.31
2018-12-18T01:01:02.419Z,6.72
2018-12-18T01:06:57.413Z,6.15
2018-12-18T01:12:52.437Z,7
2018-12-18T01:18:47.434Z,6.49
2018-12-18T01:24:42.412Z,5.64
2018-12-18T01:30:37.415Z,5.45
2018-12-18T01:36:32.414Z,5.38
2018-12-18T01:42:27.433Z,5.1
2018-12-18T01:48:22.430Z,5.14
2018-12-18T01:54:17.445Z,4
2018-12-18T02:00:12.444Z,3.83
2018-12-18T02:06:07.446Z,3.3
2018-12-18T02:12:02.443Z,4.41
2018-12-18T02:17:57.429Z,3.71
2018-12-18T02:23:52.443Z,2.93
2018-12-18T02:29:47.491Z,2.41
2018-12-18T02:35:42.457Z,2.78
2018-12-18T02:41:37.471Z,2.5
2018-12-18T02:47:32.467Z,2.58
2018-12-18T02:53:27.515Z,2.44
2018-12-18T02:59:22.501Z,2.17
2018-12-18T03:05:17.473Z,2.64
2018-12-18T03:11:12.478Z,3.25
2018-12-18T03:17:07.451Z,3.15
2018-12-18T03:23:02.643Z,2.81
2018-12-18T03:28:57.513Z,2.85
2018-12-18T03:34:52.500Z,2.07
2018-12-18T03:40:47.475Z,2
2018-12-18T03:46:42.472Z,2.9
2018-12-18T03:52:37.480Z,2.5
2018-12-18T03:58:32.487Z,3.32
2018-12-18T04:04:27.527Z,3.16
2018-12-18T04:10:22.484Z,3.61
2018-12-18T04:16:17.487Z,2.76
2018-12-18T04:22:12.533Z,3.51
2018-12-18T04:28:07.509Z,2.59
2018-12-18T04:34:02.557Z,2.95
2018-12-18T04:39:57.488Z,2.24
2018-12-18T04:45:52.500Z,4.12
2018-12-18T04:51:47.497Z,3.58
2018-12-18T04:57:42.545Z,3.37
2018-12-18T05:03:37.530Z,2.55
2018-12-18T05:09:32.526Z,2.13
2018-12-18T05:15:27.510Z,2.04
2018-12-18T05:21:22.529Z,1.92
2018-12-18T05:27:17.530Z,2
2018-12-18T05:33:12.516Z,2.04
2018-12-18T05:39:07.536Z,2.56
2018-12-18T05:45:02.512Z,1.83
2018-12-18T05:50:57.527Z,2.33
2018-12-18T05:56:52.533Z,2.91
2018-12-18T06:02:47.546Z,3.07
2018-12-18T06:08:42.578Z,2.71
2018-12-18T06:14:37.538Z,3.13
2018-12-18T06:20:32.586Z,3.01
2018-12-18T06:26:27.560Z,2.35
2018-12-18T06:32:22.545Z,2.64
2018-12-18T06:38:17.554Z,2.78
2018-12-18T06:44:12.558Z,2.05
2018-12-18T06:50:07.573Z,2.25
2018-12-18T06:56:02.569Z,2.15
2018-12-18T07:01:57.552Z,2
2018-12-18T07:07:57.306Z,2.36
2018-12-18T07:13:47.572Z,2.62
2018-12-18T07:19:42.549Z,2.72
2018-12-18T07:25:37.616Z,2.13
2018-12-18T07:31:32.570Z,1.92
2018-12-18T07:37:27.572Z,1.99
2018-12-18T07:43:22.563Z,1.52
2018-12-18T07:49:17.588Z,2.12
2018-12-18T07:55:12.574Z,8.56
2018-12-18T08:01:07.571Z,10.39
2018-12-18T08:07:02.603Z,7.84
2018-12-18T08:12:57.609Z,9.03
2018-12-18T08:18:52.584Z,7.86
2018-12-18T08:24:47.579Z,8.19
2018-12-18T08:30:42.624Z,8.97
2018-12-18T08:36:37.588Z,9.84
2018-12-18T08:42:32.631Z,15.19
2018-12-18T08:48:27.610Z,11.49
2018-12-18T08:54:22.609Z,11.91
2018-12-18T09:00:17.617Z,10.81
2018-12-18T09:06:12.610Z,11.96
2018-12-18T09:12:07.612Z,13.55
2018-12-18T09:18:02.612Z,12.49
2018-12-18T09:23:57.612Z,15.48
2018-12-18T09:29:52.616Z,14.13
2018-12-18T09:35:49.760Z,16.47
2018-12-18T09:41:42.616Z,16.21
2018-12-18T09:47:37.612Z,18.95
2018-12-18T09:53:32.647Z,19.33
2018-12-18T09:59:27.641Z,24.72
2018-12-18T10:05:22.677Z,17.85
2018-12-18T10:11:17.668Z,16.48
2018-12-18T10:17:12.658Z,17.1
2018-12-18T10:23:07.651Z,18.82
2018-12-18T10:29:02.662Z,20.5
2018-12-18T10:34:57.648Z,18.11
2018-12-18T10:40:53.810Z,16.3
2018-12-18T10:46:47.657Z,25.98
2018-12-18T10:52:42.681Z,18.22
2018-12-18T10:58:37.662Z,31.16
2018-12-18T11:04:32.644Z,16.56
2018-12-18T11:10:27.662Z,13.19
2018-12-18T11:16:22.681Z,13.78
2018-12-18T11:22:17.682Z,11.59
2018-12-18T11:28:12.717Z,8.43
2018-12-18T11:34:07.719Z,11.26
2018-12-18T11:40:02.703Z,5.25
2018-12-18T11:45:57.711Z,5.98
2018-12-18T11:51:52.677Z,8.44
2018-12-18T11:57:47.704Z,6.64
2018-12-18T12:03:42.700Z,8.37
2018-12-18T12:09:37.708Z,8.2
2018-12-18T12:15:32.701Z,8.98
2018-12-18T12:21:27.703Z,8.97
2018-12-18T12:27:22.776Z,8.51
2018-12-18T12:33:17.705Z,7.27
2018-12-18T12:39:12.748Z,6.64
2018-12-18T12:45:07.709Z,7.91
2018-12-18T12:51:02.757Z,7.16
2018-12-18T12:56:57.734Z,5.95
2018-12-18T13:02:52.782Z,6.86
2018-12-18T13:08:47.745Z,9.11
2018-12-18T13:14:42.772Z,9.18
2018-12-18T13:20:37.777Z,6.79
2018-12-18T13:26:32.751Z,6.23
2018-12-18T13:32:27.808Z,6.48
2018-12-18T13:38:22.771Z,9.6
2018-12-18T13:44:17.765Z,6.73
2018-12-18T13:50:12.757Z,6.66
2018-12-18T13:56:07.781Z,7.31
2018-12-18T14:02:02.795Z,6.49
2018-12-18T14:07:57.812Z,8.72
2018-12-18T14:13:52.850Z,5.45
2018-12-18T14:19:47.793Z,6.11
2018-12-18T14:25:42.822Z,5.36
2018-12-18T14:31:37.782Z,7.03
2018-12-18T14:37:32.781Z,7.12
2018-12-18T14:43:27.802Z,8.59
2018-12-18T14:49:22.810Z,7.5
2018-12-18T14:55:17.784Z,7.3
2018-12-18T15:01:12.881Z,8.91
2018-12-18T15:07:07.900Z,27.08
2018-12-18T15:13:02.800Z,17.45
2018-12-18T15:18:57.884Z,14.64
2018-12-18T15:24:52.825Z,9.6
2018-12-18T15:30:47.828Z,10.18
2018-12-18T15:36:42.842Z,10.06
2018-12-18T15:42:37.826Z,9.54
2018-12-18T15:48:32.835Z,11.36
2018-12-18T15:54:27.833Z,31.52
2018-12-18T16:00:22.842Z,29.17
2018-12-18T16:06:17.872Z,16.51
2018-12-18T16:12:12.900Z,13.67
2018-12-18T16:18:07.906Z,13.96
2018-12-18T16:24:02.877Z,10.22
2018-12-18T16:29:57.882Z,12.96
2018-12-18T16:35:52.882Z,13.36
2018-12-18T16:41:47.875Z,12.84
2018-12-18T16:47:42.896Z,16.31
2018-12-18T16:53:37.877Z,28.95
2018-12-18T16:59:32.914Z,8.05
2018-12-18T17:05:27.875Z,8.73
2018-12-18T17:11:22.867Z,9.9
2018-12-18T17:17:17.892Z,9.5
2018-12-18T17:23:12.897Z,12.71
2018-12-18T17:29:07.904Z,7.17
2018-12-18T17:35:02.937Z,5.91
2018-12-18T17:40:57.925Z,8.45
2018-12-18T17:46:52.955Z,11.51
2018-12-18T17:52:47.926Z,8.3
2018-12-18T17:58:42.920Z,6.77
2018-12-18T18:04:37.910Z,5.17
2018-12-18T18:10:32.934Z,12.61
2018-12-18T18:16:27.911Z,6.27
2018-12-18T18:22:22.910Z,17.43
2018-12-18T18:28:17.936Z,8.68
2018-12-18T18:34:12.930Z,8.13
2018-12-18T18:40:07.923Z,11.19
2018-12-18T18:46:02.943Z,12.36
2018-12-18T18:51:57.940Z,15.69
2018-12-18T18:57:52.923Z,23.25
2018-12-18T19:03:47.944Z,27.75
2018-12-18T19:09:42.988Z,17.98
2018-12-18T19:15:37.942Z,19.78
2018-12-18T19:21:32.940Z,15.7
2018-12-18T19:27:27.987Z,14.14
2018-12-18T19:33:22.942Z,12.19
2018-12-18T19:39:17.962Z,13.27
2018-12-18T19:45:12.959Z,9.59
2018-12-18T19:51:07.989Z,13.77
2018-12-18T19:57:02.973Z,12.46
2018-12-18T20:02:57.979Z,15.27
2018-12-18T20:08:53.028Z,13.41
2018-12-18T20:14:47.969Z,15.2
2018-12-18T20:20:42.986Z,12.67
2018-12-18T20:26:37.969Z,10.85
2018-12-18T20:32:32.979Z,14.64
2018-12-18T20:38:27.986Z,9.77
2018-12-18T20:44:23.041Z,10.43
2018-12-18T20:50:18.024Z,7.05
2018-12-18T20:56:12.991Z,7.63
2018-12-18T21:02:08.056Z,8.59
2018-12-18T21:08:02.990Z,5.88
2018-12-18T21:13:57.998Z,5.38
2018-12-18T21:19:52.987Z,4.71
2018-12-18T21:25:48.068Z,5.06
2018-12-18T21:31:43.021Z,3.92
2018-12-18T21:37:38.011Z,6.19
2018-12-18T21:43:33.010Z,3.51
2018-12-18T21:49:28.024Z,6.64
2018-12-18T21:55:23.011Z,6.38
2018-12-18T22:01:18.020Z,5.81
2018-12-18T22:07:13.027Z,5.52
2018-12-18T22:13:08.046Z,6.08
2018-12-18T22:19:03.011Z,6.56
2018-12-18T22:24:58.012Z,5.41
2018-12-18T22:30:53.045Z,4.83
2018-12-18T22:36:48.023Z,4.76
2018-12-18T22:42:43.034Z,25.36
2018-12-18T22:48:38.078Z,6.29
2018-12-18T22:54:33.062Z,6.44
2018-12-18T23:00:28.062Z,5.5
2018-12-18T23:06:23.046Z,5.1
2018-12-18T23:12:18.091Z,7.24
2018-12-18T23:18:13.043Z,8.64
2018-12-18T23:24:08.049Z,6.14
2018-12-18T23:30:03.116Z,6.13
2018-12-18T23:35:58.056Z,7.19
2018-12-18T23:41:53.062Z,6.71
2018-12-18T23:47:48.104Z,10.54
2018-12-18T23:53:43.059Z,7.95
2018-12-18T23:59:38.104Z,11.85
